首页
METAR-TAF:

METAR-TAF

机场 :

祖埃拉特, 毛里塔尼亚

纬度: 22-45-25N, 经度: 012-29-00W, 海拔: 344米

当前天气观测

该预报发布于2小时和31分钟前的12:00 UTC
风速6节,风向东北
温度 25°C
湿度 22%
气压 1021 hPa
能见度10公里或以上
1500米以下无云,无积雨云

METAR: GQPZ 111200Z 04006KT CAVOK 25/02 Q1021

时间: 14:31 (14:31 UTC)


TAF: 丢失

超过4000个机场的气象观测和天气预报(METAR&TAF报告)。

可查询的气象台以黄色和红色小点在地图上表示。

将鼠标移到小点上方,可查看气象台名称。

然后点击查看天气观测和预报。

如需切换地图:点击带黑十字的绿色按钮放大地图;点击带横线的绿色按钮缩小地图;或者点击绿色箭头查看邻近地区的地图。


METAR-TAF: